Time;durP1;ratioP1;P1;durP2;ratioP2;P2;SDS_P1;SDS_P2;PMS_P1;PMS_P2;Temp;Humidity;BMP_temperature;BMP_pressure;BME280_temperature;BME280_humidity;BME280_pressure;Samples;Min_cycle;Max_cycle;Signal;HPM_P1;HPM_P2
2022/03/31 00:00:59;;;;;;;16.35;6.95;;;3.70;99.90;;;;;;5012714;28;20224;-82
2022/03/31 00:03:26;;;;;;;12.65;6.93;;;3.80;99.90;;;;;;5018828;28;20262;-81
2022/03/31 00:05:54;;;;;;;9.90;6.70;;;3.70;99.90;;;;;;5018240;28;20228;-80
2022/03/31 00:08:21;;;;;;;10.20;7.75;;;3.70;99.90;;;;;;5017532;28;20185;-81
2022/03/31 01:33:11;;;;;;;8.50;6.30;;;2.70;99.90;;;;;;5001495;28;20300;-81
2022/03/31 01:35:38;;;;;;;9.55;6.55;;;2.70;99.90;;;;;;5007553;28;20201;-81
2022/03/31 01:38:08;;;;;;;12.65;6.78;;;3.00;99.90;;;;;;5018519;28;20197;-81
2022/03/31 01:40:35;;;;;;;7.25;6.35;;;2.80;12.20;;;;;;5020523;28;20224;-81
2022/03/31 01:43:02;;;;;;;9.93;6.30;;;2.80;99.90;;;;;;5019542;28;20181;-81
2022/03/31 01:45:28;;;;;;;9.25;5.88;;;2.60;99.90;;;;;;5020914;28;20197;-81
2022/03/31 01:47:55;;;;;;;7.82;6.68;;;2.70;99.90;;;;;;5020875;28;20185;-82
2022/03/31 01:50:24;;;;;;;6.85;6.18;;;2.80;99.90;;;;;;5012440;28;20240;-82
2022/03/31 01:52:50;;;;;;;6.43;5.57;;;2.50;99.90;;;;;;5001705;28;20248;-81
2022/03/31 01:55:17;;;;;;;5.70;5.10;;;2.40;1.00;;;;;;5001162;28;20771;-81
2022/03/31 01:57:43;;;;;;;6.82;5.10;;;2.20;1.00;;;;;;5003806;28;20229;-80
2022/03/31 02:00:13;;;;;;;7.15;5.05;;;2.40;1.00;;;;;;5005705;28;20204;-81
2022/03/31 02:02:40;;;;;;;5.75;5.25;;;2.50;1.00;;;;;;5006188;28;20271;-81
2022/03/31 02:05:07;;;;;;;6.47;5.15;;;2.30;1.00;;;;;;5006439;28;20201;-80
2022/03/31 02:07:36;;;;;;;5.15;4.65;;;2.60;1.00;;;;;;5006680;28;20216;-80
2022/03/31 02:10:03;;;;;;;5.93;5.05;;;2.20;1.00;;;;;;5011108;28;20221;-81
2022/03/31 02:12:30;;;;;;;7.95;4.85;;;2.10;1.00;;;;;;5012985;28;20235;-81
2022/03/31 02:14:56;;;;;;;6.05;5.10;;;2.40;1.00;;;;;;5012595;28;20205;-81
2022/03/31 02:17:23;;;;;;;6.53;5.00;;;2.30;1.00;;;;;;5011437;28;20212;-82
2022/03/31 02:19:49;;;;;;;5.90;4.50;;;2.10;1.00;;;;;;5002550;28;20607;-82
2022/03/31 02:22:16;;;;;;;11.68;5.40;;;2.20;1.00;;;;;;5001703;28;20704;-81
2022/03/31 02:24:44;;;;;;;6.70;4.90;;;2.30;1.00;;;;;;5000498;28;20211;-80
2022/03/31 02:27:11;;;;;;;5.53;4.82;;;2.20;1.00;;;;;;5000504;28;20209;-80
2022/03/31 02:29:38;;;;;;;5.88;4.85;;;2.10;1.00;;;;;;5000220;28;20616;-81
2022/03/31 02:32:07;;;;;;;5.10;4.50;;;2.30;1.00;;;;;;5000561;28;20239;-81
2022/03/31 02:34:34;;;;;;;11.02;5.05;;;2.30;1.00;;;;;;5000939;28;20631;-81
2022/03/31 02:37:02;;;;;;;6.50;4.55;;;1.90;1.00;;;;;;5001204;28;20212;-81
2022/03/31 02:39:29;;;;;;;4.50;4.05;;;2.00;1.00;;;;;;5000450;28;20220;-82
2022/03/31 02:41:58;;;;;;;5.47;4.88;;;2.00;1.00;;;;;;5002507;28;20231;-82
2022/03/31 02:44:25;;;;;;;6.50;4.78;;;2.00;1.00;;;;;;5003249;28;20256;-82
2022/03/31 02:46:52;;;;;;;6.13;5.45;;;2.00;99.90;;;;;;5001853;28;20216;-82
2022/03/31 02:49:18;;;;;;;4.95;4.45;;;1.90;1.00;;;;;;5001958;28;20211;-82
2022/03/31 02:51:45;;;;;;;5.50;4.68;;;1.80;1.00;;;;;;5001747;28;20271;-82
2022/03/31 02:56:57;;;;;;;7.68;4.95;;;1.70;1.00;;;;;;5019549;28;20229;-82
2022/03/31 02:59:24;;;;;;;4.68;4.22;;;1.80;99.90;;;;;;5019186;28;20221;-80
2022/03/31 03:01:50;;;;;;;6.18;4.43;;;1.70;1.00;;;;;;5016968;28;20220;-80
2022/03/31 03:04:17;;;;;;;7.15;5.80;;;1.80;1.00;;;;;;5017713;28;20195;-81
2022/03/31 03:06:44;;;;;;;6.82;4.38;;;1.70;19.50;;;;;;5009529;28;20201;-81
2022/03/31 03:09:10;;;;;;;5.93;3.85;;;1.70;1.00;;;;;;5004026;28;20204;-82
2022/03/31 03:11:37;;;;;;;4.57;4.15;;;1.50;1.00;;;;;;5003394;28;20236;-82
2022/03/31 03:14:06;;;;;;;7.38;4.53;;;1.40;1.00;;;;;;5002579;28;20204;-82
2022/03/31 03:16:33;;;;;;;6.55;4.45;;;0.80;1.00;;;;;;5003481;28;20209;-82
2022/03/31 03:19:00;;;;;;;4.47;4.07;;;1.60;99.90;;;;;;5011425;28;20192;-82
2022/03/31 03:21:27;;;;;;;5.72;4.38;;;0.40;1.00;;;;;;5019492;28;20264;-83
2022/03/31 03:23:54;;;;;;;6.35;5.10;;;;;;;;;;5019409;28;20196;-83
2022/03/31 03:26:21;;;;;;;5.95;4.80;;;1.50;1.00;;;;;;5017927;28;20204;-82
2022/03/31 03:28:48;;;;;;;5.78;4.25;;;1.30;1.00;;;;;;5014737;28;20251;-82
2022/03/31 03:31:16;;;;;;;6.28;4.10;;;0.40;1.00;;;;;;5013230;28;20232;-82
2022/03/31 03:33:43;;;;;;;4.38;3.95;;;1.20;1.00;;;;;;5001186;28;20212;-81
2022/03/31 03:36:14;;;;;;;4.70;4.30;;;1.50;1.00;;;;;;5000413;28;20202;-82
2022/03/31 03:38:42;;;;;;;4.40;3.92;;;1.50;1.00;;;;;;4998810;28;20213;-83
2022/03/31 03:41:10;;;;;;;4.57;3.97;;;1.20;1.00;;;;;;4998095;28;20708;-83
2022/03/31 03:43:38;;;;;;;5.38;4.45;;;1.60;1.00;;;;;;5001212;28;20209;-82
2022/03/31 03:46:05;;;;;;;7.28;4.80;;;0.80;1.00;;;;;;4998856;28;20217;-82
2022/03/31 03:48:33;;;;;;;6.40;4.75;;;1.20;1.00;;;;;;5000387;28;20825;-82
2022/03/31 03:51:00;;;;;;;6.65;4.90;;;1.60;99.90;;;;;;4998893;28;20229;-82
2022/03/31 03:53:26;;;;;;;5.68;3.80;;;1.30;99.90;;;;;;4999267;28;20228;-82
2022/03/31 03:55:54;;;;;;;5.07;3.78;;;1.50;99.90;;;;;;5007112;28;20201;-82
2022/03/31 03:58:21;;;;;;;4.95;3.67;;;0.90;99.90;;;;;;5016483;28;20219;-82
2022/03/31 04:00:49;;;;;;;4.90;4.07;;;1.40;99.90;;;;;;5015409;28;20205;-82
2022/03/31 04:03:16;;;;;;;7.90;5.00;;;0.60;1.00;;;;;;5006618;28;20213;-82
2022/03/31 04:05:46;;;;;;;4.10;3.78;;;1.00;1.00;;;;;;5004836;28;20691;-83
2022/03/31 04:08:14;;;;;;;3.75;3.42;;;0.80;1.00;;;;;;5002781;28;20656;-83
2022/03/31 04:10:41;;;;;;;5.20;3.80;;;1.00;87.20;;;;;;5002215;28;20225;-82
2022/03/31 04:13:09;;;;;;;7.28;4.55;;;1.10;99.90;;;;;;5002556;28;20205;-82
2022/03/31 04:15:36;;;;;;;3.45;2.97;;;;;;;;;;5002158;28;20216;-82
2022/03/31 04:18:05;;;;;;;3.92;3.47;;;1.10;99.90;;;;;;5002190;28;20259;-82
2022/03/31 04:20:32;;;;;;;4.70;3.70;;;0.80;1.00;;;;;;5001998;28;20196;-82
2022/03/31 04:23:01;;;;;;;4.50;4.10;;;0.40;99.90;;;;;;5003565;28;20201;-83
2022/03/31 04:25:28;;;;;;;9.80;4.22;;;-0.30;1.00;;;;;;5003240;28;20213;-83
2022/03/31 04:27:55;;;;;;;6.78;4.68;;;2.10;1.00;;;;;;5001573;28;20695;-81
2022/03/31 04:30:21;;;;;;;4.50;3.78;;;1.20;1.00;;;;;;5002198;28;20712;-81
2022/03/31 04:32:49;;;;;;;10.20;4.43;;;1.10;1.00;;;;;;4998941;28;20233;-81
2022/03/31 04:35:16;;;;;;;5.78;3.90;;;-0.40;1.00;;;;;;4999145;28;20224;-81
2022/03/31 04:37:43;;;;;;;3.42;3.10;;;0.90;1.00;;;;;;5000525;28;20205;-81
2022/03/31 04:40:14;;;;;;;10.30;4.40;;;0.50;1.00;;;;;;4998203;28;20208;-82
2022/03/31 04:42:40;;;;;;;7.15;3.45;;;0.80;1.00;;;;;;4998358;28;20700;-82
2022/03/31 04:45:08;;;;;;;8.02;3.85;;;0.70;1.00;;;;;;4998955;28;20212;-82
2022/03/31 04:47:35;;;;;;;4.03;3.30;;;0.80;1.00;;;;;;4999198;28;20229;-82
2022/03/31 04:50:02;;;;;;;5.38;3.70;;;0.60;1.00;;;;;;4999888;28;20205;-81
2022/03/31 04:52:28;;;;;;;5.07;4.05;;;0.70;1.00;;;;;;5000156;28;20307;-81
2022/03/31 04:54:55;;;;;;;6.63;4.32;;;0.70;1.00;;;;;;4999932;28;20201;-82
2022/03/31 04:57:23;;;;;;;6.68;3.55;;;0.80;1.00;;;;;;4999288;28;20212;-81
2022/03/31 04:59:50;;;;;;;4.10;3.47;;;0.60;1.00;;;;;;4999040;28;20206;-81
2022/03/31 05:02:18;;;;;;;3.08;2.63;;;0.50;1.00;;;;;;4999342;28;20228;-81
2022/03/31 05:04:44;;;;;;;6.40;2.75;;;0.50;1.00;;;;;;4998877;28;20240;-82
2022/03/31 05:07:19;;;;;;;6.75;4.38;;;0.20;1.00;;;;;;5004948;28;20194;-81
2022/03/31 05:09:46;;;;;;;6.90;3.95;;;0.60;1.00;;;;;;5004267;28;20651;-81
2022/03/31 05:12:13;;;;;;;9.88;3.80;;;0.00;1.00;;;;;;5011510;28;20239;-81
2022/03/31 05:14:42;;;;;;;5.47;3.40;;;0.10;1.00;;;;;;5015984;28;20219;-81
2022/03/31 05:17:10;;;;;;;5.72;3.80;;;0.40;1.00;;;;;;5015586;28;20212;-81
2022/03/31 05:19:37;;;;;;;5.40;3.85;;;0.20;1.00;;;;;;5009685;28;20209;-81
2022/03/31 05:22:04;;;;;;;5.50;3.78;;;0.40;1.00;;;;;;5017780;28;20209;-80
2022/03/31 05:24:31;;;;;;;5.50;3.55;;;0.60;1.00;;;;;;5019905;28;20201;-80
2022/03/31 05:26:57;;;;;;;4.00;3.33;;;1.00;1.00;;;;;;5019261;28;20201;-80
2022/03/31 05:29:24;;;;;;;3.95;3.28;;;0.50;1.00;;;;;;5012818;28;20205;-81
2022/03/31 05:31:53;;;;;;;4.50;3.00;;;0.10;1.00;;;;;;5013679;28;20260;-82
2022/03/31 05:34:21;;;;;;;3.42;3.13;;;0.70;1.00;;;;;;5012648;28;20212;-82
2022/03/31 05:36:48;;;;;;;4.75;3.67;;;0.70;1.00;;;;;;5014234;28;20237;-82
2022/03/31 05:39:15;;;;;;;5.55;3.60;;;0.70;43.10;;;;;;5013406;28;20216;-81
2022/03/31 05:41:42;;;;;;;7.78;4.57;;;0.60;1.00;;;;;;5013556;28;20217;-81
2022/03/31 05:44:08;;;;;;;6.10;3.72;;;1.60;7.70;;;;;;5009904;28;20209;-81
2022/03/31 05:46:35;;;;;;;4.28;3.25;;;0.70;81.60;;;;;;5003356;28;20256;-81
2022/03/31 05:49:03;;;;;;;5.22;3.58;;;0.70;31.20;;;;;;5018984;28;20192;-81
2022/03/31 05:51:30;;;;;;;6.63;3.45;;;0.60;99.90;;;;;;5020131;28;20296;-81
2022/03/31 05:53:56;;;;;;;5.72;3.60;;;0.80;99.90;;;;;;5020612;28;20193;-81
2022/03/31 05:56:23;;;;;;;4.53;4.13;;;1.00;94.20;;;;;;5020040;28;20185;-81
2022/03/31 05:58:50;;;;;;;4.82;3.42;;;0.80;43.10;;;;;;5019740;28;20208;-82
2022/03/31 06:01:17;;;;;;;7.50;4.72;;;0.30;1.00;;;;;;5004170;28;20787;-81
2022/03/31 06:03:44;;;;;;;5.93;3.70;;;0.90;1.00;;;;;;5003781;28;20236;-81
2022/03/31 06:06:12;;;;;;;5.53;3.78;;;0.50;1.00;;;;;;5005638;28;20217;-81
2022/03/31 06:08:38;;;;;;;6.45;3.70;;;0.80;1.00;;;;;;5014061;28;20205;-81
2022/03/31 06:11:05;;;;;;;12.05;5.88;;;0.70;1.00;;;;;;5017153;28;20224;-81
2022/03/31 06:13:32;;;;;;;3.55;3.25;;;0.80;1.00;;;;;;5017569;28;20205;-81
2022/03/31 06:15:58;;;;;;;3.88;3.50;;;0.60;1.00;;;;;;5009029;28;20209;-81
2022/03/31 06:18:25;;;;;;;4.30;3.75;;;0.90;1.00;;;;;;5003224;28;20212;-81
2022/03/31 06:20:52;;;;;;;4.65;3.90;;;;;;;;;;5002486;28;20208;-82
2022/03/31 06:23:21;;;;;;;4.32;3.80;;;0.80;1.00;;;;;;5002900;28;20220;-81
2022/03/31 06:25:47;;;;;;;4.82;2.83;;;0.10;1.00;;;;;;5001596;28;20208;-80
2022/03/31 06:28:15;;;;;;;4.53;3.60;;;0.90;1.00;;;;;;5002715;28;20572;-82
2022/03/31 06:30:42;;;;;;;6.88;3.85;;;;;;;;;;5002567;28;20255;-82
2022/03/31 06:33:09;;;;;;;6.60;4.30;;;0.90;1.00;;;;;;5002106;28;20573;-82
2022/03/31 06:35:36;;;;;;;5.65;4.50;;;1.00;1.00;;;;;;5003202;28;20209;-82
2022/03/31 06:38:02;;;;;;;4.03;3.63;;;0.80;1.00;;;;;;5006700;28;20201;-82
2022/03/31 06:40:36;;;;;;;8.10;4.15;;;1.00;1.00;;;;;;5006150;28;20216;-81
2022/03/31 06:43:02;;;;;;;6.55;4.43;;;0.90;1.00;;;;;;5009016;28;20193;-82
2022/03/31 06:45:29;;;;;;;8.40;4.45;;;0.90;99.90;;;;;;5006449;28;20471;-80
2022/03/31 06:47:57;;;;;;;4.93;4.13;;;1.60;1.00;;;;;;5004936;28;20292;-80
2022/03/31 06:50:24;;;;;;;4.30;3.20;;;1.10;1.00;;;;;;5004659;28;20205;-81
2022/03/31 06:52:51;;;;;;;7.82;4.68;;;1.20;1.00;;;;;;5005277;28;20229;-82
2022/03/31 06:55:17;;;;;;;7.97;4.35;;;0.90;1.00;;;;;;5003660;28;20215;-82
2022/03/31 06:57:45;;;;;;;8.00;4.32;;;1.20;1.00;;;;;;5003512;28;20201;-82
2022/03/31 07:00:13;;;;;;;4.60;3.65;;;1.70;1.00;;;;;;5003369;28;20209;-82
2022/03/31 07:02:40;;;;;;;8.52;5.00;;;1.30;1.00;;;;;;5003686;28;20221;-82
2022/03/31 07:05:07;;;;;;;7.25;4.70;;;1.30;1.00;;;;;;5006720;28;20448;-81
2022/03/31 07:07:34;;;;;;;9.95;4.72;;;1.30;99.90;;;;;;5006140;28;20205;-80
2022/03/31 07:10:01;;;;;;;5.20;4.70;;;1.50;99.90;;;;;;5008117;28;20209;-81
2022/03/31 07:12:28;;;;;;;6.88;4.00;;;1.60;99.90;;;;;;5006084;28;20260;-81
2022/03/31 07:14:56;;;;;;;6.82;4.15;;;1.70;99.90;;;;;;5004484;28;20204;-81
2022/03/31 07:17:22;;;;;;;4.80;4.00;;;1.80;99.90;;;;;;5005008;28;20234;-82
2022/03/31 07:19:49;;;;;;;10.18;5.53;;;1.80;99.90;;;;;;5004171;28;20273;-82
2022/03/31 07:22:16;;;;;;;7.15;4.72;;;1.90;1.00;;;;;;5002393;28;20306;-82
2022/03/31 07:24:42;;;;;;;11.80;4.70;;;1.90;99.90;;;;;;5003716;28;20680;-82
2022/03/31 07:27:09;;;;;;;6.38;4.95;;;1.70;1.00;;;;;;5009851;28;20196;-81
2022/03/31 07:29:36;;;;;;;7.65;4.25;;;1.70;1.00;;;;;;5019068;28;20200;-82
2022/03/31 07:32:05;;;;;;;6.47;4.35;;;1.80;1.00;;;;;;5057299;23;20228;-84
2022/03/31 07:34:34;;;;;;;6.53;5.05;;;2.10;99.90;;;;;;5003725;28;20204;-84
2022/03/31 07:37:01;;;;;;;5.28;4.55;;;2.00;99.90;;;;;;5002737;28;20212;-86
2022/03/31 07:39:28;;;;;;;5.03;4.63;;;2.30;99.90;;;;;;5003382;28;20213;-85
2022/03/31 07:41:54;;;;;;;8.82;4.90;;;2.30;99.90;;;;;;5003520;28;20279;-82
2022/03/31 07:44:21;;;;;;;6.03;4.38;;;2.40;99.90;;;;;;5007984;28;20221;-81
2022/03/31 07:46:51;;;;;;;6.43;3.90;;;2.50;99.90;;;;;;5009354;28;20215;-83
2022/03/31 07:49:22;;;;;;;4.22;3.88;;;2.40;99.90;;;;;;5009643;28;20189;-85
2022/03/31 07:51:48;;;;;;;5.18;4.68;;;2.40;99.90;;;;;;5008697;28;20233;-84
2022/03/31 07:54:15;;;;;;;5.03;4.30;;;2.50;99.90;;;;;;5010632;28;20205;-83
2022/03/31 07:56:41;;;;;;;4.97;4.32;;;2.60;99.90;;;;;;5012381;28;20205;-83
2022/03/31 07:59:08;;;;;;;7.47;4.30;;;2.90;1.00;;;;;;5013342;28;20209;-83
2022/03/31 08:01:41;;;;;;;7.00;5.18;;;2.80;1.00;;;;;;5014097;28;20229;-84
2022/03/31 08:04:17;;;;;;;5.35;4.82;;;2.80;1.00;;;;;;5014123;28;20193;-81
2022/03/31 08:06:45;;;;;;;7.07;4.78;;;3.10;99.90;;;;;;5015387;28;20169;-81
2022/03/31 08:09:13;;;;;;;5.22;4.30;;;3.10;99.90;;;;;;5013880;28;20209;-83
2022/03/31 08:11:41;;;;;;;7.15;5.65;;;3.20;99.90;;;;;;5017859;28;20240;-81
2022/03/31 08:14:08;;;;;;;6.18;4.45;;;3.30;99.90;;;;;;5017964;28;20197;-82
2022/03/31 08:16:37;;;;;;;10.98;5.00;;;3.50;1.00;;;;;;5017592;28;20204;-82
2022/03/31 08:19:05;;;;;;;7.60;5.45;;;3.90;99.90;;;;;;5017942;28;20195;-81
2022/03/31 08:21:35;;;;;;;6.50;4.97;;;3.50;1.00;;;;;;5017745;28;20205;-82
2022/03/31 08:24:03;;;;;;;5.35;4.85;;;3.60;99.90;;;;;;5018274;28;20203;-83
2022/03/31 08:26:30;;;;;;;8.35;5.15;;;3.50;99.90;;;;;;5017441;28;20266;-84
2022/03/31 08:28:56;;;;;;;5.97;5.35;;;3.80;99.90;;;;;;5017085;28;20201;-83
2022/03/31 08:31:23;;;;;;;9.25;5.55;;;3.80;1.00;;;;;;5015921;28;20305;-83
2022/03/31 08:33:50;;;;;;;8.23;5.18;;;;;;;;;;5013564;28;20228;-81
2022/03/31 08:36:17;;;;;;;9.50;4.75;;;4.00;99.90;;;;;;5005488;28;20259;-84
2022/03/31 08:38:49;;;;;;;11.80;5.95;;;4.10;99.90;;;;;;5005385;28;20209;-86
2022/03/31 08:41:19;;;;;;;6.60;5.97;;;4.20;99.90;;;;;;5008038;28;20193;-84
2022/03/31 08:43:46;;;;;;;9.68;4.93;;;4.10;99.90;;;;;;5005657;28;20182;-83
2022/03/31 08:46:20;;;;;;;7.75;5.30;;;4.10;1.00;;;;;;5006029;28;20208;-84
2022/03/31 08:48:47;;;;;;;9.88;5.57;;;4.20;99.90;;;;;;5014024;28;20241;-85
2022/03/31 08:51:13;;;;;;;8.02;5.45;;;4.30;1.00;;;;;;5019786;28;20204;-83
2022/03/31 08:53:40;;;;;;;5.28;4.78;;;4.50;1.00;;;;;;5017440;28;20228;-83
2022/03/31 08:56:10;;;;;;;8.65;5.80;;;4.40;99.90;;;;;;5014673;28;20232;-82
2022/03/31 08:58:38;;;;;;;7.63;4.80;;;4.50;99.90;;;;;;5014261;28;20297;-84
2022/03/31 09:01:21;;;;;;;10.13;4.85;;;4.60;1.00;;;;;;5006991;28;20275;-84
2022/03/31 09:03:48;;;;;;;6.35;5.40;;;4.10;99.90;;;;;;5006171;28;20193;-85
2022/03/31 09:06:24;;;;;;;9.00;5.25;;;4.50;99.90;;;;;;5006131;28;20579;-85
2022/03/31 09:08:58;;;;;;;9.52;5.68;;;4.60;99.90;;;;;;5008040;28;20271;-84
2022/03/31 09:11:31;;;;;;;6.05;5.38;;;4.50;99.90;;;;;;5007084;28;20252;-83
2022/03/31 09:14:00;;;;;;;6.00;4.78;;;4.90;1.00;;;;;;5013379;28;20268;-84
2022/03/31 09:16:35;;;;;;;7.38;5.53;;;4.80;99.90;;;;;;5015426;28;20209;-83
2022/03/31 09:19:02;;;;;;;8.35;5.07;;;4.50;99.90;;;;;;5017163;28;20223;-85
2022/03/31 09:21:30;;;;;;;7.68;5.30;;;4.60;99.90;;;;;;5013117;28;20233;-85
2022/03/31 09:24:17;;;;;;;7.15;4.78;;;4.90;1.00;;;;;;5008107;28;20232;-85
2022/03/31 09:26:46;;;;;;;6.95;5.93;;;4.70;99.90;;;;;;5006474;28;20205;-84
2022/03/31 09:29:15;;;;;;;6.93;5.70;;;4.90;1.00;;;;;;5006025;28;20205;-85
2022/03/31 09:31:43;;;;;;;8.65;5.95;;;4.80;99.90;;;;;;5005954;28;20765;-84
2022/03/31 09:34:10;;;;;;;7.03;5.20;;;4.80;1.00;;;;;;5007170;28;20201;-83
2022/03/31 09:36:39;;;;;;;14.82;6.00;;;5.00;99.90;;;;;;5012921;28;20189;-83
2022/03/31 09:39:13;;;;;;;10.55;5.38;;;5.00;99.90;;;;;;5012935;28;20209;-85
2022/03/31 09:41:41;;;;;;;5.45;4.85;;;5.20;99.90;;;;;;5011359;28;20228;-85
2022/03/31 09:44:13;;;;;;;9.95;6.03;;;5.50;1.00;;;;;;5010549;28;20264;-85
2022/03/31 09:46:42;;;;;;;5.70;4.93;;;5.50;99.90;;;;;;5009539;28;20194;-84
2022/03/31 09:49:14;;;;;;;4.85;4.45;;;5.40;99.90;;;;;;5007594;28;20567;-85
2022/03/31 09:51:41;;;;;;;10.07;5.40;;;5.40;1.00;;;;;;5005856;28;20304;-84
2022/03/31 09:54:13;;;;;;;10.85;5.53;;;5.50;99.90;;;;;;5005851;28;20215;-83
2022/03/31 09:56:40;;;;;;;7.63;6.03;;;5.60;99.90;;;;;;5005726;28;20224;-85
2022/03/31 09:59:09;;;;;;;11.60;6.35;;;5.30;99.90;;;;;;5005254;28;20640;-84
2022/03/31 10:01:37;;;;;;;7.20;5.40;;;5.60;99.90;;;;;;5008955;28;20228;-84
2022/03/31 10:04:07;;;;;;;10.85;6.22;;;5.50;99.90;;;;;;5006106;28;20220;-84
2022/03/31 10:06:35;;;;;;;15.57;6.53;;;5.80;99.90;;;;;;5005730;28;20216;-83
2022/03/31 10:09:03;;;;;;;7.80;6.00;;;5.80;99.90;;;;;;5007455;28;20607;-84
2022/03/31 10:11:32;;;;;;;8.60;4.50;;;5.80;99.90;;;;;;5007721;28;20229;-86
2022/03/31 10:14:17;;;;;;;7.93;5.70;;;5.80;99.90;;;;;;5008692;28;20228;-84
2022/03/31 10:16:47;;;;;;;6.40;5.18;;;5.80;99.90;;;;;;5009799;28;20193;-83
2022/03/31 10:19:27;;;;;;;9.85;5.95;;;5.90;99.90;;;;;;5012346;28;20247;-85
2022/03/31 10:21:58;;;;;;;12.13;6.30;;;6.20;99.90;;;;;;5006924;28;20225;-85
2022/03/31 10:24:44;;;;;;;18.65;4.90;;;6.20;99.90;;;;;;5006082;28;20206;-85
2022/03/31 10:27:24;;;;;;;10.15;5.53;;;6.30;99.90;;;;;;5006884;28;20193;-83
2022/03/31 10:29:51;;;;;;;8.45;4.78;;;6.10;99.90;;;;;;5006419;28;20189;-84
2022/03/31 10:32:20;;;;;;;5.80;5.07;;;6.50;99.90;;;;;;5005252;28;20320;-85
2022/03/31 10:34:49;;;;;;;6.07;4.70;;;6.30;99.90;;;;;;5006503;28;20208;-84
2022/03/31 10:37:18;;;;;;;6.05;5.10;;;6.00;99.90;;;;;;5006073;28;20209;-83
2022/03/31 10:39:55;;;;;;;7.72;5.75;;;6.40;2.80;;;;;;5007079;28;20201;-87
2022/03/31 10:42:22;;;;;;;8.35;5.57;;;6.20;99.90;;;;;;5011621;28;20292;-83
2022/03/31 10:44:49;;;;;;;10.50;7.30;;;;;;;;;;5014651;28;20197;-83
2022/03/31 10:47:15;;;;;;;6.10;5.47;;;6.50;99.90;;;;;;5015743;28;20399;-84
2022/03/31 10:49:55;;;;;;;6.80;5.40;;;6.90;1.00;;;;;;5012266;28;20656;-85
2022/03/31 10:52:23;;;;;;;6.32;5.63;;;6.80;1.00;;;;;;5008471;28;20235;-84
2022/03/31 10:54:54;;;;;;;9.45;5.97;;;6.60;1.00;;;;;;5006309;28;20237;-84
2022/03/31 10:57:20;;;;;;;12.30;5.70;;;6.80;1.00;;;;;;5006577;28;20355;-85
2022/03/31 10:59:50;;;;;;;6.13;5.53;;;7.10;1.00;;;;;;5006579;28;20207;-86
2022/03/31 11:02:19;;;;;;;8.15;5.95;;;7.20;1.00;;;;;;5009067;28;20221;-85
2022/03/31 11:04:48;;;;;;;13.93;5.60;;;6.90;1.00;;;;;;5006764;28;20209;-85
2022/03/31 11:07:22;;;;;;;7.68;5.00;;;7.10;1.00;;;;;;5009344;28;20261;-85
2022/03/31 11:09:59;;;;;;;9.23;5.47;;;7.10;1.00;;;;;;5008439;28;20213;-84
2022/03/31 11:12:28;;;;;;;14.45;7.40;;;7.30;1.00;;;;;;5009503;28;20255;-84
2022/03/31 11:14:57;;;;;;;7.25;4.97;;;7.30;1.00;;;;;;5011753;28;20213;-84
2022/03/31 11:17:25;;;;;;;6.65;5.82;;;7.10;1.00;;;;;;5012056;28;20194;-85
2022/03/31 11:19:53;;;;;;;8.98;6.97;;;7.20;1.00;;;;;;5016426;28;20206;-85
2022/03/31 11:22:23;;;;;;;6.75;6.05;;;7.00;1.00;;;;;;5017401;28;20229;-84
2022/03/31 11:24:51;;;;;;;9.00;5.40;;;;;;;;;;5017524;28;20193;-85
2022/03/31 11:27:36;;;;;;;6.50;5.85;;;7.00;1.00;;;;;;5017293;28;20213;-84
2022/03/31 11:30:07;;;;;;;8.70;6.00;;;6.60;1.00;;;;;;5017230;28;20173;-84
2022/03/31 11:32:34;;;;;;;7.03;6.07;;;6.90;1.00;;;;;;5013503;28;20329;-84
2022/03/31 11:35:01;;;;;;;8.30;6.20;;;7.00;1.00;;;;;;5009366;28;20210;-83
2022/03/31 11:37:30;;;;;;;8.23;6.50;;;6.70;1.00;;;;;;5010619;28;20205;-83
2022/03/31 11:39:56;;;;;;;6.10;5.60;;;7.10;1.00;;;;;;5012138;28;20207;-86
2022/03/31 11:42:24;;;;;;;10.30;5.95;;;6.90;1.00;;;;;;5011474;28;20221;-83
2022/03/31 11:44:59;;;;;;;8.10;5.95;;;6.80;1.00;;;;;;5011313;28;20277;-85
2022/03/31 11:47:27;;;;;;;6.00;4.70;;;7.00;1.00;;;;;;5008233;28;20213;-85
2022/03/31 11:49:59;;;;;;;6.65;6.05;;;7.10;1.00;;;;;;5008726;28;20293;-85
2022/03/31 11:52:32;;;;;;;7.63;5.83;;;7.00;1.00;;;;;;5009354;28;20221;-86
2022/03/31 11:55:00;;;;;;;11.65;6.05;;;7.10;1.00;;;;;;5016214;28;20412;-84
2022/03/31 11:57:28;;;;;;;8.88;6.55;;;6.90;1.00;;;;;;5017720;28;20203;-84
2022/03/31 12:00:09;;;;;;;13.00;6.70;;;7.20;1.00;;;;;;5014482;28;20206;-84
2022/03/31 12:02:39;;;;;;;7.20;6.40;;;;;;;;;;5009365;28;20225;-84
2022/03/31 12:05:15;;;;;;;7.20;6.00;;;7.30;1.00;;;;;;5008094;28;20487;-85
2022/03/31 12:07:44;;;;;;;8.63;6.20;;;7.40;1.00;;;;;;5009469;28;20424;-84
2022/03/31 12:10:13;;;;;;;7.20;6.55;;;7.20;1.00;;;;;;5007533;28;20541;-84
2022/03/31 12:12:47;;;;;;;12.20;6.60;;;7.30;1.00;;;;;;5007303;28;20225;-85
2022/03/31 12:15:20;;;;;;;6.77;6.17;;;7.40;1.00;;;;;;5005894;28;20465;-84
2022/03/31 12:18:00;;;;;;;8.40;6.40;;;7.30;1.00;;;;;;5005760;28;20452;-84
2022/03/31 12:20:27;;;;;;;7.17;5.80;;;7.40;1.00;;;;;;5007045;28;20411;-85
2022/03/31 12:22:55;;;;;;;8.57;6.43;;;8.50;1.00;;;;;;5008626;28;20447;-85
2022/03/31 12:25:31;;;;;;;6.27;5.47;;;7.60;1.00;;;;;;5016068;28;20428;-84
2022/03/31 12:27:59;;;;;;;10.83;6.50;;;7.60;1.00;;;;;;5015516;28;20444;-83
2022/03/31 12:30:27;;;;;;;9.33;6.37;;;7.60;1.00;;;;;;5016118;28;20437;-86
2022/03/31 12:32:55;;;;;;;8.80;6.00;;;7.90;1.00;;;;;;5012542;28;20460;-84
2022/03/31 12:35:31;;;;;;;7.70;5.97;;;7.90;1.00;;;;;;5009673;28;20459;-85
2022/03/31 12:38:03;;;;;;;7.23;6.53;;;7.70;1.00;;;;;;5008040;28;20754;-86
2022/03/31 12:40:30;;;;;;;6.43;5.67;;;7.80;1.00;;;;;;5008155;28;20403;-86
2022/03/31 12:42:58;;;;;;;13.40;7.20;;;7.90;1.00;;;;;;5008062;28;20509;-85
2022/03/31 12:45:31;;;;;;;7.60;6.37;;;8.60;1.00;;;;;;5007887;28;20538;-85
2022/03/31 12:47:58;;;;;;;8.57;5.67;;;8.00;1.00;;;;;;5005762;28;20445;-84
2022/03/31 12:50:27;;;;;;;9.40;5.87;;;7.90;1.00;;;;;;5004931;28;20452;-84
2022/03/31 12:52:55;;;;;;;10.53;6.33;;;7.90;1.00;;;;;;5005327;28;20493;-86
2022/03/31 12:55:29;;;;;;;12.40;6.93;;;7.80;1.00;;;;;;5005822;28;21026;-84
2022/03/31 12:57:59;;;;;;;11.23;6.13;;;7.80;1.00;;;;;;5006614;28;20476;-85
2022/03/31 13:00:26;;;;;;;8.27;5.90;;;8.00;1.00;;;;;;5007132;28;20472;-84
2022/03/31 13:02:53;;;;;;;12.33;6.87;;;7.80;1.00;;;;;;5006607;28;21010;-85
2022/03/31 13:05:22;;;;;;;10.17;6.57;;;8.80;1.00;;;;;;5006978;28;20420;-85
2022/03/31 13:07:50;;;;;;;6.30;5.70;;;7.60;1.00;;;;;;5010466;28;20420;-86
2022/03/31 13:10:17;;;;;;;7.13;5.20;;;8.10;1.00;;;;;;5007290;28;20456;-84
2022/03/31 13:12:47;;;;;;;8.07;5.60;;;7.90;1.00;;;;;;5006746;28;20532;-84
2022/03/31 13:15:14;;;;;;;7.13;5.87;;;8.00;1.00;;;;;;5008088;28;20420;-85
2022/03/31 13:17:42;;;;;;;11.20;6.90;;;7.10;1.00;;;;;;5007471;28;20473;-84
2022/03/31 13:20:10;;;;;;;9.00;6.03;;;7.70;1.00;;;;;;5007241;28;20454;-84
2022/03/31 13:22:38;;;;;;;7.57;5.80;;;7.80;1.00;;;;;;5006773;28;20505;-84
2022/03/31 13:25:06;;;;;;;8.97;5.63;;;7.10;1.00;;;;;;5007036;28;20423;-84
2022/03/31 13:27:39;;;;;;;7.78;5.57;;;7.90;1.00;;;;;;5007160;28;20461;-86
2022/03/31 13:30:08;;;;;;;9.57;6.60;;;7.80;1.00;;;;;;5006966;28;20194;-85
2022/03/31 13:45:47;;;;;;;5.80;4.50;;;8.00;1.00;;;;;;4889503;28;20499;-83
2022/03/31 14:43:48;;;;;;;5.20;4.10;;;7.70;99.90;;;;;;4918974;29;20239;-84
2022/03/31 14:57:37;;;;;;;4.80;2.97;;;7.30;1.00;;;;;;4763381;29;20233;-82
2022/03/31 15:27:52;;;;;;;6.38;3.20;;;7.40;99.90;;;;;;4871198;23;20250;-81
2022/03/31 15:30:22;;;;;;;6.03;3.33;;;7.30;99.90;;;;;;5003741;28;20353;-82
2022/03/31 15:33:02;;;;;;;3.53;3.05;;;7.40;99.90;;;;;;5002657;28;20600;-82
2022/03/31 15:35:35;;;;;;;3.45;2.72;;;7.30;99.90;;;;;;5003666;28;20231;-83
2022/03/31 15:38:22;;;;;;;2.72;2.50;;;7.30;99.90;;;;;;5002279;28;20229;-82
2022/03/31 15:40:52;;;;;;;3.67;2.90;;;7.30;99.90;;;;;;5003014;28;20191;-81
2022/03/31 15:43:23;;;;;;;8.43;4.50;;;7.30;99.90;;;;;;5016054;28;20208;-81
2022/03/31 15:45:50;;;;;;;3.38;2.80;;;;;;;;;;5018031;28;20185;-81
2022/03/31 15:48:20;;;;;;;5.93;2.97;;;7.30;6.30;;;;;;5015885;28;20237;-81
2022/03/31 15:50:49;;;;;;;7.25;3.72;;;;;;;;;;5014609;28;20205;-81
2022/03/31 15:53:31;;;;;;;3.08;2.50;;;7.30;99.90;;;;;;5015720;28;20213;-81
2022/03/31 15:56:11;;;;;;;3.25;2.25;;;7.30;99.90;;;;;;5015406;28;20205;-81
2022/03/31 15:58:52;;;;;;;6.78;2.50;;;7.30;99.90;;;;;;5009215;28;20245;-83
2022/03/31 16:01:19;;;;;;;3.70;2.88;;;7.30;99.90;;;;;;5003667;28;20212;-83
2022/03/31 16:03:54;;;;;;;4.72;3.17;;;7.10;99.90;;;;;;5003706;28;20225;-82
2022/03/31 16:06:33;;;;;;;6.75;3.17;;;7.20;99.90;;;;;;5004218;28;20664;-81
2022/03/31 16:09:03;;;;;;;3.95;2.50;;;7.20;99.90;;;;;;5004562;28;20235;-82
2022/03/31 16:11:43;;;;;;;3.53;2.40;;;7.30;99.90;;;;;;5003703;28;20209;-82
2022/03/31 16:14:41;;;;;;;4.53;2.83;;;7.30;99.90;;;;;;5007429;28;20251;-82
2022/03/31 16:17:22;;;;;;;6.88;2.10;;;7.30;99.90;;;;;;4965551;29;20191;-83
2022/03/31 16:22:31;;;;;;;3.92;2.63;;;;;;;;;;5003008;28;20645;-82
2022/03/31 16:25:07;;;;;;;4.53;2.90;;;7.20;99.90;;;;;;5004149;28;20234;-82
2022/03/31 16:27:48;;;;;;;3.97;2.80;;;7.20;99.90;;;;;;5002767;28;20228;-82
2022/03/31 16:30:17;;;;;;;6.72;4.45;;;7.10;99.90;;;;;;5002648;28;20314;-83